Hovedside
METAR-TAF:

METAR-TAF

Lufthavner :

Gran Canaria internasjonale lufthavn

Gran Canaria, Spania

breddegrad: 27-56N, lengdegrad: 015-23W, høyde over havet: 23 m

Gjeldene værobservasjon

Denne rapporten ble laget for 37 minutter siden, klokken 06:00 UTC
Vind 12 kt fra Nord
Temperatur 19°C
Luftfuktighet 64%
Trykk 1024 hPa
Sikt 10 km eller mer
Få skyer i en høyde av 2500 ft
Brutte skyer i en høyde av 3500 ft

METAR: GCLP 120600Z 36012KT 9999 FEW025 BKN035 19/12 Q1024 NOSIG

Tid: 06:37 (06:37 UTC)

Varsel

Denne rapporten ble laget for 4 timer og 37 minutter siden, klokken 02:00 UTC
Varsel gyldig fra 12. klokken 03 UTC til 13. klokken 03 UTC
Vind 16 kt fra Nord
Sikt 10 km eller mer
Spredte skyer i en høyde av 3500 ft

TAF: GCLP 120200Z 1203/1303 36016KT 9999 SCT035 TX23/1214Z TN17/1206Z

Værobservasjoner og værvarsel for over 4000 flyplasser (METAR- og TAF-rapporter).

Tilgjengelige stasjoner er representert av de røde og gule prikkene på kartet.

Hold musepekeren over prikken for å se navnet på stasjonen.

Klikk så for å se værobservasjoner og -varsler.

For å forandre kartet kan du klikke på den grønne knappen med svart kryss for å zoome inn, på den grønne knappen med strek for å zoome ut, eller på de grønne pilene for å se tilstøtende kart.


METAR-TAF: